sensor_id;sensor_type;location;lat;lon;timestamp;temperature;humidity
4701;DHT22;8724;51.272;6.554;2024-02-15T00:00:19;13.80;99.90
4701;DHT22;8724;51.272;6.554;2024-02-15T00:02:47;13.80;99.90
4701;DHT22;8724;51.272;6.554;2024-02-15T00:05:18;13.70;99.90
4701;DHT22;8724;51.272;6.554;2024-02-15T00:07:46;13.90;99.90
4701;DHT22;8724;51.272;6.554;2024-02-15T00:10:15;13.80;99.90
4701;DHT22;8724;51.272;6.554;2024-02-15T00:12:43;13.70;99.90
4701;DHT22;8724;51.272;6.554;2024-02-15T00:15:13;13.70;99.90
4701;DHT22;8724;51.272;6.554;2024-02-15T00:17:41;13.80;99.90
4701;DHT22;8724;51.272;6.554;2024-02-15T00:20:10;13.80;99.90
4701;DHT22;8724;51.272;6.554;2024-02-15T00:22:38;13.80;99.90
4701;DHT22;8724;51.272;6.554;2024-02-15T00:25:08;13.80;99.90
4701;DHT22;8724;51.272;6.554;2024-02-15T00:27:37;13.80;99.90
4701;DHT22;8724;51.272;6.554;2024-02-15T00:30:09;14.10;99.90
4701;DHT22;8724;51.272;6.554;2024-02-15T00:32:39;13.80;99.90
4701;DHT22;8724;51.272;6.554;2024-02-15T00:35:08;13.50;99.90
4701;DHT22;8724;51.272;6.554;2024-02-15T00:37:37;13.80;99.90
4701;DHT22;8724;51.272;6.554;2024-02-15T00:40:07;13.80;99.90
4701;DHT22;8724;51.272;6.554;2024-02-15T00:42:35;13.80;99.90
4701;DHT22;8724;51.272;6.554;2024-02-15T00:45:04;13.80;99.90
4701;DHT22;8724;51.272;6.554;2024-02-15T00:47:32;13.80;99.90
4701;DHT22;8724;51.272;6.554;2024-02-15T00:50:02;13.80;99.90
4701;DHT22;8724;51.272;6.554;2024-02-15T00:52:30;13.80;99.90
4701;DHT22;8724;51.272;6.554;2024-02-15T00:54:58;13.80;99.90
4701;DHT22;8724;51.272;6.554;2024-02-15T00:57:26;13.80;99.90
4701;DHT22;8724;51.272;6.554;2024-02-15T00:59:54;13.80;99.90
4701;DHT22;8724;51.272;6.554;2024-02-15T01:02:23;13.90;99.90
4701;DHT22;8724;51.272;6.554;2024-02-15T01:04:51;13.80;99.90
4701;DHT22;8724;51.272;6.554;2024-02-15T01:07:21;13.80;99.90
4701;DHT22;8724;51.272;6.554;2024-02-15T01:09:54;13.90;99.90
4701;DHT22;8724;51.272;6.554;2024-02-15T01:12:22;13.90;99.90
4701;DHT22;8724;51.272;6.554;2024-02-15T01:14:50;13.80;99.90
4701;DHT22;8724;51.272;6.554;2024-02-15T01:17:18;13.90;99.90
4701;DHT22;8724;51.272;6.554;2024-02-15T01:19:46;13.90;99.90
4701;DHT22;8724;51.272;6.554;2024-02-15T01:22:14;13.90;99.90
4701;DHT22;8724;51.272;6.554;2024-02-15T01:24:44;13.90;99.90
4701;DHT22;8724;51.272;6.554;2024-02-15T01:27:12;13.90;99.90
4701;DHT22;8724;51.272;6.554;2024-02-15T01:29:41;13.90;99.90
4701;DHT22;8724;51.272;6.554;2024-02-15T01:32:28;13.90;99.90
4701;DHT22;8724;51.272;6.554;2024-02-15T01:34:56;13.90;99.90
4701;DHT22;8724;51.272;6.554;2024-02-15T01:37:24;13.90;99.90
4701;DHT22;8724;51.272;6.554;2024-02-15T01:39:54;14.10;99.90
4701;DHT22;8724;51.272;6.554;2024-02-15T01:42:22;13.90;99.90
4701;DHT22;8724;51.272;6.554;2024-02-15T01:44:50;13.90;99.90
4701;DHT22;8724;51.272;6.554;2024-02-15T01:47:20;13.90;99.90
4701;DHT22;8724;51.272;6.554;2024-02-15T01:49:50;13.90;99.90
4701;DHT22;8724;51.272;6.554;2024-02-15T01:52:18;13.90;99.90
4701;DHT22;8724;51.272;6.554;2024-02-15T01:54:46;13.90;99.90
4701;DHT22;8724;51.272;6.554;2024-02-15T01:57:17;13.90;99.90
4701;DHT22;8724;51.272;6.554;2024-02-15T01:59:49;14.00;99.90
4701;DHT22;8724;51.272;6.554;2024-02-15T02:02:19;13.90;99.90
4701;DHT22;8724;51.272;6.554;2024-02-15T02:04:48;14.00;99.90
4701;DHT22;8724;51.272;6.554;2024-02-15T02:07:16;14.00;99.90
4701;DHT22;8724;51.272;6.554;2024-02-15T02:09:46;13.90;99.90
4701;DHT22;8724;51.272;6.554;2024-02-15T02:12:17;14.00;99.90
4701;DHT22;8724;51.272;6.554;2024-02-15T02:14:46;13.90;99.90
4701;DHT22;8724;51.272;6.554;2024-02-15T02:17:14;13.90;99.90
4701;DHT22;8724;51.272;6.554;2024-02-15T02:19:42;14.00;99.90
4701;DHT22;8724;51.272;6.554;2024-02-15T02:22:11;14.00;99.90
4701;DHT22;8724;51.272;6.554;2024-02-15T02:24:54;14.00;99.90
4701;DHT22;8724;51.272;6.554;2024-02-15T02:27:22;14.00;99.90
4701;DHT22;8724;51.272;6.554;2024-02-15T02:29:51;14.00;99.90
4701;DHT22;8724;51.272;6.554;2024-02-15T02:32:19;14.00;99.90
4701;DHT22;8724;51.272;6.554;2024-02-15T02:34:47;14.00;99.90
4701;DHT22;8724;51.272;6.554;2024-02-15T02:37:16;14.00;99.90
4701;DHT22;8724;51.272;6.554;2024-02-15T02:39:44;14.00;99.90
4701;DHT22;8724;51.272;6.554;2024-02-15T02:42:14;14.00;99.90
4701;DHT22;8724;51.272;6.554;2024-02-15T02:44:42;14.00;99.90
4701;DHT22;8724;51.272;6.554;2024-02-15T02:47:10;14.00;99.90
4701;DHT22;8724;51.272;6.554;2024-02-15T02:49:38;14.00;99.90
4701;DHT22;8724;51.272;6.554;2024-02-15T02:52:07;14.00;99.90
4701;DHT22;8724;51.272;6.554;2024-02-15T02:54:35;14.00;99.90
4701;DHT22;8724;51.272;6.554;2024-02-15T02:57:03;14.00;99.90
4701;DHT22;8724;51.272;6.554;2024-02-15T02:59:35;14.00;99.90
4701;DHT22;8724;51.272;6.554;2024-02-15T03:02:07;14.00;99.90
4701;DHT22;8724;51.272;6.554;2024-02-15T03:04:35;14.00;99.90
4701;DHT22;8724;51.272;6.554;2024-02-15T03:07:05;14.00;99.90
4701;DHT22;8724;51.272;6.554;2024-02-15T03:09:33;14.10;99.90
4701;DHT22;8724;51.272;6.554;2024-02-15T03:12:04;14.00;99.90
4701;DHT22;8724;51.272;6.554;2024-02-15T03:14:32;14.00;99.90
4701;DHT22;8724;51.272;6.554;2024-02-15T03:17:03;14.00;99.90
4701;DHT22;8724;51.272;6.554;2024-02-15T03:19:32;14.00;99.90
4701;DHT22;8724;51.272;6.554;2024-02-15T03:22:01;14.00;99.90
4701;DHT22;8724;51.272;6.554;2024-02-15T03:24:29;14.10;99.90
4701;DHT22;8724;51.272;6.554;2024-02-15T03:26:57;14.00;99.90
4701;DHT22;8724;51.272;6.554;2024-02-15T03:29:25;14.00;99.90
4701;DHT22;8724;51.272;6.554;2024-02-15T03:31:53;14.00;99.90
4701;DHT22;8724;51.272;6.554;2024-02-15T03:34:23;14.00;99.90
4701;DHT22;8724;51.272;6.554;2024-02-15T03:36:53;14.00;99.90
4701;DHT22;8724;51.272;6.554;2024-02-15T03:39:21;14.00;99.90
4701;DHT22;8724;51.272;6.554;2024-02-15T03:41:50;14.00;99.90
4701;DHT22;8724;51.272;6.554;2024-02-15T03:44:20;14.00;99.90
4701;DHT22;8724;51.272;6.554;2024-02-15T03:46:48;14.00;99.90
4701;DHT22;8724;51.272;6.554;2024-02-15T03:49:18;14.00;99.90
4701;DHT22;8724;51.272;6.554;2024-02-15T03:51:48;14.00;99.90
4701;DHT22;8724;51.272;6.554;2024-02-15T03:54:16;14.00;99.90
4701;DHT22;8724;51.272;6.554;2024-02-15T03:56:48;14.00;99.90
4701;DHT22;8724;51.272;6.554;2024-02-15T03:59:19;14.00;99.90
4701;DHT22;8724;51.272;6.554;2024-02-15T04:01:52;14.00;99.90
4701;DHT22;8724;51.272;6.554;2024-02-15T04:04:21;14.00;99.90
4701;DHT22;8724;51.272;6.554;2024-02-15T04:06:51;14.00;99.90
4701;DHT22;8724;51.272;6.554;2024-02-15T04:09:20;14.00;99.90
4701;DHT22;8724;51.272;6.554;2024-02-15T04:11:48;14.00;99.90
4701;DHT22;8724;51.272;6.554;2024-02-15T04:14:20;14.00;99.90
4701;DHT22;8724;51.272;6.554;2024-02-15T04:16:48;14.00;99.90
4701;DHT22;8724;51.272;6.554;2024-02-15T04:19:16;14.00;99.90
4701;DHT22;8724;51.272;6.554;2024-02-15T04:21:46;14.00;99.90
4701;DHT22;8724;51.272;6.554;2024-02-15T04:24:16;14.00;99.90
4701;DHT22;8724;51.272;6.554;2024-02-15T04:26:44;14.10;99.90
4701;DHT22;8724;51.272;6.554;2024-02-15T04:29:15;14.10;99.90
4701;DHT22;8724;51.272;6.554;2024-02-15T04:31:44;14.00;99.90
4701;DHT22;8724;51.272;6.554;2024-02-15T04:34:16;14.00;99.90
4701;DHT22;8724;51.272;6.554;2024-02-15T04:36:46;14.00;99.90
4701;DHT22;8724;51.272;6.554;2024-02-15T04:39:18;14.10;99.90
4701;DHT22;8724;51.272;6.554;2024-02-15T04:41:51;14.30;99.90
4701;DHT22;8724;51.272;6.554;2024-02-15T04:44:19;14.10;99.90
4701;DHT22;8724;51.272;6.554;2024-02-15T04:46:48;14.10;99.90
4701;DHT22;8724;51.272;6.554;2024-02-15T04:49:17;14.10;99.90
4701;DHT22;8724;51.272;6.554;2024-02-15T04:51:45;14.10;99.90
4701;DHT22;8724;51.272;6.554;2024-02-15T04:54:14;14.10;99.90
4701;DHT22;8724;51.272;6.554;2024-02-15T04:56:44;14.00;99.90
4701;DHT22;8724;51.272;6.554;2024-02-15T04:59:13;14.10;99.90
4701;DHT22;8724;51.272;6.554;2024-02-15T05:01:42;14.00;99.90
4701;DHT22;8724;51.272;6.554;2024-02-15T05:04:10;14.00;99.90
4701;DHT22;8724;51.272;6.554;2024-02-15T05:06:40;14.00;99.90
4701;DHT22;8724;51.272;6.554;2024-02-15T05:09:08;14.00;99.90
4701;DHT22;8724;51.272;6.554;2024-02-15T05:11:38;14.00;99.90
4701;DHT22;8724;51.272;6.554;2024-02-15T05:14:09;14.00;99.90
4701;DHT22;8724;51.272;6.554;2024-02-15T05:16:38;14.00;99.90
4701;DHT22;8724;51.272;6.554;2024-02-15T05:19:09;14.00;99.90
4701;DHT22;8724;51.272;6.554;2024-02-15T05:21:38;14.00;99.90
4701;DHT22;8724;51.272;6.554;2024-02-15T05:24:07;14.00;99.90
4701;DHT22;8724;51.272;6.554;2024-02-15T05:26:35;14.00;99.90
4701;DHT22;8724;51.272;6.554;2024-02-15T05:29:03;14.00;99.90
4701;DHT22;8724;51.272;6.554;2024-02-15T05:31:34;14.00;99.90
4701;DHT22;8724;51.272;6.554;2024-02-15T05:34:05;14.00;99.90
4701;DHT22;8724;51.272;6.554;2024-02-15T05:36:36;14.00;99.90
4701;DHT22;8724;51.272;6.554;2024-02-15T05:39:04;14.00;99.90
4701;DHT22;8724;51.272;6.554;2024-02-15T05:41:33;14.00;99.90
4701;DHT22;8724;51.272;6.554;2024-02-15T05:44:01;14.00;99.90
4701;DHT22;8724;51.272;6.554;2024-02-15T05:46:32;14.00;99.90
4701;DHT22;8724;51.272;6.554;2024-02-15T05:49:05;14.00;99.90
4701;DHT22;8724;51.272;6.554;2024-02-15T05:51:33;14.00;99.90
4701;DHT22;8724;51.272;6.554;2024-02-15T05:54:01;14.00;99.90
4701;DHT22;8724;51.272;6.554;2024-02-15T05:56:30;14.00;99.90
4701;DHT22;8724;51.272;6.554;2024-02-15T05:58:58;14.00;99.90
4701;DHT22;8724;51.272;6.554;2024-02-15T06:01:29;14.00;99.90
4701;DHT22;8724;51.272;6.554;2024-02-15T06:03:57;14.00;99.90
4701;DHT22;8724;51.272;6.554;2024-02-15T06:06:28;14.00;99.90
4701;DHT22;8724;51.272;6.554;2024-02-15T06:08:56;14.00;99.90
4701;DHT22;8724;51.272;6.554;2024-02-15T06:11:27;14.00;99.90
4701;DHT22;8724;51.272;6.554;2024-02-15T06:13:55;14.00;99.90
4701;DHT22;8724;51.272;6.554;2024-02-15T06:16:23;14.00;99.90
4701;DHT22;8724;51.272;6.554;2024-02-15T06:18:51;14.00;99.90
4701;DHT22;8724;51.272;6.554;2024-02-15T06:21:20;14.00;99.90
4701;DHT22;8724;51.272;6.554;2024-02-15T06:23:49;14.00;99.90
4701;DHT22;8724;51.272;6.554;2024-02-15T06:26:18;14.00;99.90
4701;DHT22;8724;51.272;6.554;2024-02-15T06:28:47;14.00;99.90
4701;DHT22;8724;51.272;6.554;2024-02-15T06:31:48;14.00;99.90
4701;DHT22;8724;51.272;6.554;2024-02-15T06:34:48;14.00;99.90
4701;DHT22;8724;51.272;6.554;2024-02-15T06:37:37;14.00;99.90
4701;DHT22;8724;51.272;6.554;2024-02-15T06:40:24;14.00;99.90
4701;DHT22;8724;51.272;6.554;2024-02-15T06:42:52;14.00;99.90
4701;DHT22;8724;51.272;6.554;2024-02-15T06:45:20;14.00;99.90
4701;DHT22;8724;51.272;6.554;2024-02-15T06:47:48;14.00;99.90
4701;DHT22;8724;51.272;6.554;2024-02-15T06:50:17;14.10;99.90
4701;DHT22;8724;51.272;6.554;2024-02-15T06:52:45;14.00;99.90
4701;DHT22;8724;51.272;6.554;2024-02-15T06:55:16;14.00;99.90
4701;DHT22;8724;51.272;6.554;2024-02-15T06:57:47;14.10;99.90
4701;DHT22;8724;51.272;6.554;2024-02-15T07:00:15;14.00;99.90
4701;DHT22;8724;51.272;6.554;2024-02-15T07:02:45;14.00;99.90
4701;DHT22;8724;51.272;6.554;2024-02-15T07:05:15;14.10;99.90
4701;DHT22;8724;51.272;6.554;2024-02-15T07:07:44;14.10;99.90
4701;DHT22;8724;51.272;6.554;2024-02-15T07:10:12;14.10;99.90
4701;DHT22;8724;51.272;6.554;2024-02-15T07:12:43;14.10;99.90
4701;DHT22;8724;51.272;6.554;2024-02-15T07:15:13;14.10;99.90
4701;DHT22;8724;51.272;6.554;2024-02-15T07:17:43;14.10;99.90
4701;DHT22;8724;51.272;6.554;2024-02-15T07:20:12;14.10;99.90
4701;DHT22;8724;51.272;6.554;2024-02-15T07:22:44;14.10;99.90
4701;DHT22;8724;51.272;6.554;2024-02-15T07:25:12;14.10;99.90
4701;DHT22;8724;51.272;6.554;2024-02-15T07:27:41;14.10;99.90
4701;DHT22;8724;51.272;6.554;2024-02-15T07:30:10;14.10;99.90
4701;DHT22;8724;51.272;6.554;2024-02-15T07:32:39;14.10;99.90
4701;DHT22;8724;51.272;6.554;2024-02-15T07:35:08;14.10;99.90
4701;DHT22;8724;51.272;6.554;2024-02-15T07:37:36;14.10;99.90
4701;DHT22;8724;51.272;6.554;2024-02-15T07:40:06;14.10;99.90
4701;DHT22;8724;51.272;6.554;2024-02-15T07:42:35;14.10;99.90
4701;DHT22;8724;51.272;6.554;2024-02-15T07:45:04;14.10;99.90
4701;DHT22;8724;51.272;6.554;2024-02-15T07:47:33;14.10;99.90
4701;DHT22;8724;51.272;6.554;2024-02-15T07:50:03;14.10;99.90
4701;DHT22;8724;51.272;6.554;2024-02-15T07:52:32;14.10;99.90
4701;DHT22;8724;51.272;6.554;2024-02-15T07:55:01;14.10;99.90
4701;DHT22;8724;51.272;6.554;2024-02-15T07:57:35;14.10;99.90
4701;DHT22;8724;51.272;6.554;2024-02-15T08:00:04;14.10;99.90
4701;DHT22;8724;51.272;6.554;2024-02-15T08:02:37;14.10;99.90
4701;DHT22;8724;51.272;6.554;2024-02-15T08:05:10;14.10;99.90
4701;DHT22;8724;51.272;6.554;2024-02-15T08:07:42;14.10;99.90
4701;DHT22;8724;51.272;6.554;2024-02-15T08:10:11;14.10;99.90
4701;DHT22;8724;51.272;6.554;2024-02-15T08:12:41;14.10;99.90
4701;DHT22;8724;51.272;6.554;2024-02-15T08:15:10;14.10;99.90
4701;DHT22;8724;51.272;6.554;2024-02-15T08:17:40;14.10;99.90
4701;DHT22;8724;51.272;6.554;2024-02-15T08:20:11;14.10;99.90
4701;DHT22;8724;51.272;6.554;2024-02-15T08:22:39;14.10;99.90
4701;DHT22;8724;51.272;6.554;2024-02-15T08:25:10;14.10;99.90
4701;DHT22;8724;51.272;6.554;2024-02-15T08:27:39;14.10;99.90
4701;DHT22;8724;51.272;6.554;2024-02-15T08:30:11;14.10;99.90
4701;DHT22;8724;51.272;6.554;2024-02-15T08:32:39;14.10;99.90
4701;DHT22;8724;51.272;6.554;2024-02-15T08:35:12;14.10;99.90
4701;DHT22;8724;51.272;6.554;2024-02-15T08:37:41;14.40;99.90
4701;DHT22;8724;51.272;6.554;2024-02-15T08:40:10;14.10;99.90
4701;DHT22;8724;51.272;6.554;2024-02-15T08:42:41;14.10;99.90
4701;DHT22;8724;51.272;6.554;2024-02-15T08:45:10;14.10;99.90
4701;DHT22;8724;51.272;6.554;2024-02-15T08:47:40;14.10;99.90
4701;DHT22;8724;51.272;6.554;2024-02-15T08:50:11;14.10;99.90
4701;DHT22;8724;51.272;6.554;2024-02-15T08:52:41;14.10;99.90
4701;DHT22;8724;51.272;6.554;2024-02-15T08:55:10;14.30;99.90
4701;DHT22;8724;51.272;6.554;2024-02-15T08:57:41;14.10;99.90
4701;DHT22;8724;51.272;6.554;2024-02-15T09:00:12;14.10;99.90
4701;DHT22;8724;51.272;6.554;2024-02-15T09:02:43;14.10;99.90
4701;DHT22;8724;51.272;6.554;2024-02-15T09:05:12;14.10;99.90
4701;DHT22;8724;51.272;6.554;2024-02-15T09:07:42;14.10;99.90
4701;DHT22;8724;51.272;6.554;2024-02-15T09:10:10;14.10;99.90
4701;DHT22;8724;51.272;6.554;2024-02-15T09:12:40;14.10;99.90
4701;DHT22;8724;51.272;6.554;2024-02-15T09:15:09;14.10;99.90
4701;DHT22;8724;51.272;6.554;2024-02-15T09:17:38;14.10;99.90
4701;DHT22;8724;51.272;6.554;2024-02-15T09:20:08;14.20;99.90
4701;DHT22;8724;51.272;6.554;2024-02-15T09:22:43;14.10;99.90
4701;DHT22;8724;51.272;6.554;2024-02-15T09:25:13;14.10;99.90
4701;DHT22;8724;51.272;6.554;2024-02-15T09:27:44;14.20;99.90
4701;DHT22;8724;51.272;6.554;2024-02-15T09:30:13;14.10;99.90
4701;DHT22;8724;51.272;6.554;2024-02-15T09:32:42;14.10;99.90
4701;DHT22;8724;51.272;6.554;2024-02-15T09:35:12;14.10;99.90
4701;DHT22;8724;51.272;6.554;2024-02-15T09:37:45;14.40;99.90
4701;DHT22;8724;51.272;6.554;2024-02-15T09:40:16;14.20;99.90
4701;DHT22;8724;51.272;6.554;2024-02-15T09:42:46;14.20;99.90
4701;DHT22;8724;51.272;6.554;2024-02-15T09:45:15;14.20;99.90
4701;DHT22;8724;51.272;6.554;2024-02-15T09:47:45;14.20;99.90
4701;DHT22;8724;51.272;6.554;2024-02-15T09:50:14;14.20;99.90
4701;DHT22;8724;51.272;6.554;2024-02-15T09:52:47;14.20;99.90
4701;DHT22;8724;51.272;6.554;2024-02-15T09:55:15;14.20;99.90
4701;DHT22;8724;51.272;6.554;2024-02-15T09:57:45;14.20;99.90
4701;DHT22;8724;51.272;6.554;2024-02-15T10:00:15;14.20;99.90
4701;DHT22;8724;51.272;6.554;2024-02-15T10:02:47;14.30;99.90
4701;DHT22;8724;51.272;6.554;2024-02-15T10:05:17;14.30;99.90
4701;DHT22;8724;51.272;6.554;2024-02-15T10:07:46;14.30;99.90
4701;DHT22;8724;51.272;6.554;2024-02-15T10:10:16;14.30;99.90
4701;DHT22;8724;51.272;6.554;2024-02-15T10:12:44;14.30;99.90
4701;DHT22;8724;51.272;6.554;2024-02-15T10:15:30;14.30;99.90
4701;DHT22;8724;51.272;6.554;2024-02-15T10:18:01;14.30;99.90
4701;DHT22;8724;51.272;6.554;2024-02-15T10:20:30;14.30;99.90
4701;DHT22;8724;51.272;6.554;2024-02-15T10:23:13;14.30;99.90
4701;DHT22;8724;51.272;6.554;2024-02-15T10:25:44;14.30;99.90
4701;DHT22;8724;51.272;6.554;2024-02-15T10:28:14;14.40;99.90
4701;DHT22;8724;51.272;6.554;2024-02-15T10:30:50;14.40;99.90
4701;DHT22;8724;51.272;6.554;2024-02-15T10:33:25;14.40;99.90
4701;DHT22;8724;51.272;6.554;2024-02-15T10:36:05;14.40;99.90
4701;DHT22;8724;51.272;6.554;2024-02-15T10:38:35;14.40;99.90
4701;DHT22;8724;51.272;6.554;2024-02-15T10:41:04;14.40;99.90
4701;DHT22;8724;51.272;6.554;2024-02-15T10:43:33;14.40;99.90
4701;DHT22;8724;51.272;6.554;2024-02-15T10:46:01;14.50;99.90
4701;DHT22;8724;51.272;6.554;2024-02-15T10:48:30;14.50;99.90
4701;DHT22;8724;51.272;6.554;2024-02-15T10:50:59;14.50;99.90
4701;DHT22;8724;51.272;6.554;2024-02-15T10:53:31;14.50;99.90
4701;DHT22;8724;51.272;6.554;2024-02-15T10:56:11;14.50;99.90
4701;DHT22;8724;51.272;6.554;2024-02-15T10:58:51;14.50;99.90
4701;DHT22;8724;51.272;6.554;2024-02-15T11:01:24;14.50;99.90
4701;DHT22;8724;51.272;6.554;2024-02-15T11:03:57;14.50;99.90
4701;DHT22;8724;51.272;6.554;2024-02-15T11:06:28;14.50;99.90
4701;DHT22;8724;51.272;6.554;2024-02-15T11:08:57;14.60;99.90
4701;DHT22;8724;51.272;6.554;2024-02-15T11:11:29;14.60;99.90
4701;DHT22;8724;51.272;6.554;2024-02-15T11:14:25;14.60;99.90
4701;DHT22;8724;51.272;6.554;2024-02-15T11:16:53;14.60;99.90
4701;DHT22;8724;51.272;6.554;2024-02-15T11:19:43;14.60;99.90
4701;DHT22;8724;51.272;6.554;2024-02-15T11:22:14;14.60;99.90
4701;DHT22;8724;51.272;6.554;2024-02-15T11:24:47;14.60;99.90
4701;DHT22;8724;51.272;6.554;2024-02-15T11:27:27;14.60;99.90
4701;DHT22;8724;51.272;6.554;2024-02-15T11:29:56;14.60;99.90
4701;DHT22;8724;51.272;6.554;2024-02-15T11:32:37;14.70;99.90
4701;DHT22;8724;51.272;6.554;2024-02-15T11:35:07;14.70;99.90
4701;DHT22;8724;51.272;6.554;2024-02-15T11:37:58;14.70;99.90
4701;DHT22;8724;51.272;6.554;2024-02-15T11:40:28;14.80;99.90
4701;DHT22;8724;51.272;6.554;2024-02-15T11:42:59;14.80;99.90
4701;DHT22;8724;51.272;6.554;2024-02-15T11:45:28;14.80;99.90
4701;DHT22;8724;51.272;6.554;2024-02-15T11:48:00;14.80;99.90
4701;DHT22;8724;51.272;6.554;2024-02-15T11:50:34;14.80;99.90
4701;DHT22;8724;51.272;6.554;2024-02-15T11:53:05;15.00;99.90
4701;DHT22;8724;51.272;6.554;2024-02-15T11:55:38;14.80;99.90
4701;DHT22;8724;51.272;6.554;2024-02-15T11:58:08;14.90;99.90
4701;DHT22;8724;51.272;6.554;2024-02-15T12:00:49;14.90;99.90
4701;DHT22;8724;51.272;6.554;2024-02-15T12:03:35;14.90;99.90
4701;DHT22;8724;51.272;6.554;2024-02-15T12:06:32;14.90;99.90
4701;DHT22;8724;51.272;6.554;2024-02-15T12:09:19;15.00;99.90
4701;DHT22;8724;51.272;6.554;2024-02-15T12:12:06;15.00;99.90
4701;DHT22;8724;51.272;6.554;2024-02-15T12:14:59;15.00;99.90
4701;DHT22;8724;51.272;6.554;2024-02-15T12:17:45;15.00;99.90
4701;DHT22;8724;51.272;6.554;2024-02-15T12:20:31;15.10;99.90
4701;DHT22;8724;51.272;6.554;2024-02-15T12:22:59;15.10;99.90
4701;DHT22;8724;51.272;6.554;2024-02-15T12:25:28;15.10;99.90
4701;DHT22;8724;51.272;6.554;2024-02-15T12:28:00;15.10;99.90
4701;DHT22;8724;51.272;6.554;2024-02-15T12:30:34;15.10;99.90
4701;DHT22;8724;51.272;6.554;2024-02-15T12:33:11;15.20;99.90
4701;DHT22;8724;51.272;6.554;2024-02-15T12:35:47;15.20;99.90
4701;DHT22;8724;51.272;6.554;2024-02-15T12:38:15;15.20;99.90
4701;DHT22;8724;51.272;6.554;2024-02-15T12:40:45;15.20;99.90
4701;DHT22;8724;51.272;6.554;2024-02-15T12:43:15;15.30;99.90
4701;DHT22;8724;51.272;6.554;2024-02-15T12:45:45;15.30;99.90
4701;DHT22;8724;51.272;6.554;2024-02-15T12:48:13;15.30;99.90
4701;DHT22;8724;51.272;6.554;2024-02-15T12:50:42;15.30;99.90
4701;DHT22;8724;51.272;6.554;2024-02-15T12:53:10;15.30;99.90
4701;DHT22;8724;51.272;6.554;2024-02-15T12:55:39;15.40;99.90
4701;DHT22;8724;51.272;6.554;2024-02-15T12:58:12;15.40;99.90
4701;DHT22;8724;51.272;6.554;2024-02-15T13:00:42;15.40;99.90
4701;DHT22;8724;51.272;6.554;2024-02-15T13:03:12;15.40;99.90
4701;DHT22;8724;51.272;6.554;2024-02-15T13:05:42;15.40;99.90
4701;DHT22;8724;51.272;6.554;2024-02-15T13:08:11;15.50;99.90
4701;DHT22;8724;51.272;6.554;2024-02-15T13:10:42;15.50;99.90
4701;DHT22;8724;51.272;6.554;2024-02-15T13:13:11;15.50;99.90
4701;DHT22;8724;51.272;6.554;2024-02-15T13:15:41;15.50;99.90
4701;DHT22;8724;51.272;6.554;2024-02-15T13:18:12;15.50;99.90
4701;DHT22;8724;51.272;6.554;2024-02-15T13:20:41;15.50;99.90
4701;DHT22;8724;51.272;6.554;2024-02-15T13:23:10;15.50;99.90
4701;DHT22;8724;51.272;6.554;2024-02-15T13:25:46;15.50;99.90
4701;DHT22;8724;51.272;6.554;2024-02-15T13:28:15;15.50;99.90
4701;DHT22;8724;51.272;6.554;2024-02-15T13:30:45;15.50;99.90
4701;DHT22;8724;51.272;6.554;2024-02-15T13:33:15;15.50;99.90
4701;DHT22;8724;51.272;6.554;2024-02-15T13:35:44;15.60;99.90
4701;DHT22;8724;51.272;6.554;2024-02-15T13:38:12;15.60;99.90
4701;DHT22;8724;51.272;6.554;2024-02-15T13:40:49;15.60;99.90
4701;DHT22;8724;51.272;6.554;2024-02-15T13:43:18;15.70;99.90
4701;DHT22;8724;51.272;6.554;2024-02-15T13:45:46;15.60;99.90
4701;DHT22;8724;51.272;6.554;2024-02-15T13:48:17;15.60;99.90
4701;DHT22;8724;51.272;6.554;2024-02-15T13:50:45;15.70;99.90
4701;DHT22;8724;51.272;6.554;2024-02-15T13:53:13;15.60;99.90
4701;DHT22;8724;51.272;6.554;2024-02-15T13:55:41;15.70;99.90
4701;DHT22;8724;51.272;6.554;2024-02-15T13:58:09;15.70;99.90
4701;DHT22;8724;51.272;6.554;2024-02-15T14:00:41;15.80;99.90
4701;DHT22;8724;51.272;6.554;2024-02-15T14:03:11;15.70;99.90
4701;DHT22;8724;51.272;6.554;2024-02-15T14:05:43;15.70;99.90
4701;DHT22;8724;51.272;6.554;2024-02-15T14:08:13;15.70;99.90
4701;DHT22;8724;51.272;6.554;2024-02-15T14:10:42;15.70;99.90
4701;DHT22;8724;51.272;6.554;2024-02-15T14:13:11;15.70;99.90
4701;DHT22;8724;51.272;6.554;2024-02-15T14:15:41;15.70;99.90
4701;DHT22;8724;51.272;6.554;2024-02-15T14:18:11;15.70;99.90
4701;DHT22;8724;51.272;6.554;2024-02-15T14:20:43;15.70;99.90
4701;DHT22;8724;51.272;6.554;2024-02-15T14:23:13;15.70;99.90
4701;DHT22;8724;51.272;6.554;2024-02-15T14:25:42;15.70;99.90
4701;DHT22;8724;51.272;6.554;2024-02-15T14:28:11;15.70;99.90
4701;DHT22;8724;51.272;6.554;2024-02-15T14:30:40;15.80;99.90
4701;DHT22;8724;51.272;6.554;2024-02-15T14:33:26;15.70;99.90
4701;DHT22;8724;51.272;6.554;2024-02-15T14:35:58;15.70;99.90
4701;DHT22;8724;51.272;6.554;2024-02-15T14:38:27;15.80;99.90
4701;DHT22;8724;51.272;6.554;2024-02-15T14:40:56;15.80;99.90
4701;DHT22;8724;51.272;6.554;2024-02-15T14:43:27;15.80;99.90
4701;DHT22;8724;51.272;6.554;2024-02-15T14:45:55;15.80;99.90
4701;DHT22;8724;51.272;6.554;2024-02-15T14:48:25;15.80;99.90
4701;DHT22;8724;51.272;6.554;2024-02-15T14:50:54;15.80;99.90
4701;DHT22;8724;51.272;6.554;2024-02-15T14:53:25;15.80;99.90
4701;DHT22;8724;51.272;6.554;2024-02-15T14:55:54;15.80;99.90
4701;DHT22;8724;51.272;6.554;2024-02-15T14:58:22;15.80;99.90
4701;DHT22;8724;51.272;6.554;2024-02-15T15:00:50;15.80;99.90
4701;DHT22;8724;51.272;6.554;2024-02-15T15:03:30;15.80;99.90
4701;DHT22;8724;51.272;6.554;2024-02-15T15:06:00;15.80;99.90
4701;DHT22;8724;51.272;6.554;2024-02-15T15:08:47;15.80;99.90
4701;DHT22;8724;51.272;6.554;2024-02-15T15:11:33;15.80;99.90
4701;DHT22;8724;51.272;6.554;2024-02-15T15:14:18;15.80;99.90
4701;DHT22;8724;51.272;6.554;2024-02-15T15:16:47;15.80;99.90
4701;DHT22;8724;51.272;6.554;2024-02-15T15:19:16;15.80;99.90
4701;DHT22;8724;51.272;6.554;2024-02-15T15:21:45;16.20;99.90
4701;DHT22;8724;51.272;6.554;2024-02-15T15:24:14;15.80;99.90
4701;DHT22;8724;51.272;6.554;2024-02-15T15:26:43;15.80;99.90
4701;DHT22;8724;51.272;6.554;2024-02-15T15:29:11;15.80;99.90
4701;DHT22;8724;51.272;6.554;2024-02-15T15:31:40;15.80;99.90
4701;DHT22;8724;51.272;6.554;2024-02-15T15:34:08;15.80;99.90
4701;DHT22;8724;51.272;6.554;2024-02-15T15:36:37;15.80;99.90
4701;DHT22;8724;51.272;6.554;2024-02-15T15:39:06;15.80;99.90
4701;DHT22;8724;51.272;6.554;2024-02-15T15:41:37;15.80;99.90
4701;DHT22;8724;51.272;6.554;2024-02-15T15:44:07;15.80;99.90
4701;DHT22;8724;51.272;6.554;2024-02-15T15:46:36;15.80;99.90
4701;DHT22;8724;51.272;6.554;2024-02-15T15:49:04;15.80;99.90
4701;DHT22;8724;51.272;6.554;2024-02-15T15:51:33;15.80;99.90
4701;DHT22;8724;51.272;6.554;2024-02-15T15:54:02;15.80;99.90
4701;DHT22;8724;51.272;6.554;2024-02-15T15:56:32;15.80;99.90
4701;DHT22;8724;51.272;6.554;2024-02-15T15:59:02;15.80;99.90
4701;DHT22;8724;51.272;6.554;2024-02-15T16:01:32;15.80;99.90
4701;DHT22;8724;51.272;6.554;2024-02-15T16:04:02;16.00;99.90
4701;DHT22;8724;51.272;6.554;2024-02-15T16:06:30;15.80;99.90
4701;DHT22;8724;51.272;6.554;2024-02-15T16:08:59;15.80;99.90
4701;DHT22;8724;51.272;6.554;2024-02-15T16:11:27;15.80;99.90
4701;DHT22;8724;51.272;6.554;2024-02-15T16:13:55;15.80;99.90
4701;DHT22;8724;51.272;6.554;2024-02-15T16:16:25;15.80;99.90
4701;DHT22;8724;51.272;6.554;2024-02-15T16:18:54;15.90;99.90
4701;DHT22;8724;51.272;6.554;2024-02-15T16:21:23;15.90;99.90
4701;DHT22;8724;51.272;6.554;2024-02-15T16:23:52;15.90;99.90